KAUSKCLL

Guest
Details From KAUS - Austin Bergstrom Intl
To KCLL - Easterwood Field
Flight Number -
Tags Generated
Created
Modified
Stats Distance 70 nm / 130 km
Max Altitude 0 ft / 0 m
Waypoints 2
Social Downloads 4
Likes 0
Share VATSIM

Download

Looking for another format? Having issues loading an existing format? Contact us
Advertisement - Login to hide

Notes

Generated

Route

KAUS KCLL

ID Type Via Altitude Latitude Longitude Leg Dist Tot Dist Heading (true) Name
O KAUS APT - 0 ft / 0 m 30.20383˚ -97.65789˚ - 0 nm - -
O KCLL APT - 0 ft / 0 m 30.58530˚ -96.37309˚ 70 nm 70 nm 71° / 71° -

Altitude Profile

Advertisement - Login to hide

KAUS

Details ICAO KAUS (AUS)
Name Austin Bergstrom Intl
Region United States
Timezone America/Chicago (UTC-6.0)
Stats Elevation 542 ft / 165 m (AMSL)
Location 30.194121° -97.668244°
Runways 2
Magnetic Variation 3.811° E

METAR

KAUS 130253Z 00000KT 10SM CLR 03/00 A3028 RMK AO2 SLP257 T00330000 50002

Decode

TAF

KAUS 122335Z 1300/1406 01010KT P6SM FEW200 FM130100 VRB03KT P6SM FEW200 FM131600 21012KT P6SM FEW250

Decode

Departure Runways

ID Width Length Bearing (true) Bearing (mag) Surface Threshold Offset Overrun Length
17L 151 ft / 46 m 9,030 ft / 2,752 m 178.70° 174.89° Concrete 0 ft / 0 m 390 ft / 119 m
17R 151 ft / 46 m 12,289 ft / 3,746 m 178.69° 174.88° Concrete 0 ft / 0 m 1,001 ft / 305 m
35L 151 ft / 46 m 12,289 ft / 3,746 m 358.69° 354.88° Concrete 0 ft / 0 m 1,001 ft / 305 m
35R 151 ft / 46 m 9,030 ft / 2,752 m 358.70° 354.89° Concrete 0 ft / 0 m 390 ft / 119 m

KCLL

Details ICAO KCLL (CLL)
Name Easterwood Field
Region United States
Timezone America/Chicago (UTC-6.0)
Stats Elevation 321 ft / 98 m (AMSL)
Location 30.588753° -96.364197°
Runways 3
Magnetic Variation 3.058° E

METAR

KCLL 130253Z 00000KT 10SM CLR 06/M02 A3026 RMK AO2 SLP247 T00611017 58001

Decode

TAF

TAF KCLL 122320Z 1300/1324 VRB05KT P6SM SKC FM131500 20009KT P6SM BKN250

Decode

Destination Runways

ID Width Length Bearing (true) Bearing (mag) Surface Threshold Offset Overrun Length
04 151 ft / 46 m 5,152 ft / 1,570 m 49.60° 46.54° Concrete 0 ft / 0 m 0 ft / 0 m
10 151 ft / 46 m 5,152 ft / 1,570 m 108.87° 105.81° Asphalt 0 ft / 0 m 0 ft / 0 m
16 151 ft / 46 m 7,021 ft / 2,140 m 168.93° 165.87° Asphalt 0 ft / 0 m 0 ft / 0 m
22 151 ft / 46 m 5,152 ft / 1,570 m 229.60° 226.54° Concrete 0 ft / 0 m 0 ft / 0 m
28 151 ft / 46 m 5,152 ft / 1,570 m 288.87° 285.81° Asphalt 0 ft / 0 m 0 ft / 0 m
34 151 ft / 46 m 7,021 ft / 2,140 m 348.93° 345.87° Asphalt 0 ft / 0 m 0 ft / 0 m

Approach Navaids

Runway Type Ident Frequency Range Bearing (true) Bearing (mag) Slope Elevation
34 Localiser ICLL 111.70 MHz 18 nm / 33 km 348.93° 345.87° - 326 ft / 99 m (AMSL)
34 Glidescope ICLL 111.70 MHz 10 nm / 19 km 348.93° 345.87° 2.90° 303 ft / 92 m (AMSL)
34 DME ICLL 111.70 MHz 18 nm / 33 km - - - 330 ft / 101 m (AMSL)

Popular Alternatives